Hogeland, Montana
Current Conditions -  °F | °C
As of 1:53 AM on Friday 24 Oct 2014 (Local Time) from KHVR Reporting Station
Few Clouds Few Clouds  
Wind Chill: 53°   Ceiling: Unl
Heat Index: 53°   Visibility: 10mi
Dew Point: 40°   Wind: 16mph
Humidity: 61%   Direction: 230°SW
Pressure: 29.81"   Gusts: NA
Location:  48.85°N, 108.66°W
Report Text: KHVR 240753Z AUTO 23014KT 10SM FEW120 12/04 A2981 RMK AO2 SLP092 T01170044
Loading
Personal Weather Stations






























Interactive Weather Map
Tropical Storm Tracking
New forecast layout! Learn more

10-Day Weather Forecast

Advertisements
Track Severe Weather on mobile